Lathrup Village, Michigan
Current Conditions -  °F | °C
As of 1:17 AM on Sunday 23 Nov 2014 (Local Time) from KVLL Reporting Station
Overcast Overcast  
Wind Chill: 50°   Ceiling: 2900
Heat Index: 50°   Visibility: 10mi
Dew Point: 43°   Wind: 8mph
Humidity: 76%   Direction: 220°SW
Pressure: 29.95"   Gusts: NA
Location:  42.4974°N, 83.2307°W
Report Text: KVLL 230617Z AUTO 22007KT 10SM OVC029 10/06 A2995 RMK AO2
Loading
Personal Weather Stations






























Interactive Weather Map New forecast layout! Learn more

10-Day Weather Forecast

Advertisements
Track Severe Weather on mobile